Latest Flight | Flight Log | Data Trends | Login | Join FlightData.com!
Date Range From To
Export:
Flight Log - PR-MRV - Click on row to view flight. Click on header to sort.
Date Origin Dest Depart Arrive Hobbs Flight Time Flight Distance Fuel Fuel/hr Fuel/nm Altitude Gnd Speed
Sun, Oct 14, 2018     12:47 12:47 0.01 hrs 0.00 hrs 0.00 nm 0.00 gal 0.00 gal/hr 0.00 gal/nm 0 msl 0 kts
Tue, Oct 10, 2017     15:40 15:41 0.01 hrs 0.00 hrs 0.00 nm 0.00 gal 0.00 gal/hr 0.00 gal/nm 0 msl 0 kts
Thu, Jun 16, 2016 SBSJ SDCO 10:26 11:17 0.85 hrs 0.64 hrs 110.50 nm 14.00 gal 16.54 gal/hr 0.13 gal/nm 4188 msl 171 kts
Wed, Jun 1, 2016 SDCO SDCO 19:24 19:29 0.08 hrs 0.00 hrs 0.00 nm 0.00 gal 0.00 gal/hr 0.00 gal/nm 0 msl 0 kts
Fri, Oct 23, 2015 SBJR SBCP 08:53 09:57 1.05 hrs 0.91 hrs 151.41 nm 17.40 gal 16.62 gal/hr 0.11 gal/nm 3497 msl 166 kts
Thu, Aug 20, 2015 SBRP SBSR 14:34 15:21 0.76 hrs 0.63 hrs 101.44 nm 12.70 gal 16.64 gal/hr 0.13 gal/nm 6508 msl 159 kts
Thu, Jun 18, 2015 SBJR SBLO 09:59 13:28 3.45 hrs 2.96 hrs 448.81 nm 58.40 gal 16.94 gal/hr 0.13 gal/nm 10024 msl 151 kts
Wed, Jun 17, 2015 SBRJ SBJR 20:04 20:22 0.3 hrs 0.19 hrs 26.10 nm 3.50 gal 11.80 gal/hr 0.13 gal/nm 939 msl 136 kts
Thu, Jun 11, 2015 SBMT SBBH 09:35 11:28 1.86 hrs 1.63 hrs 295.29 nm 32.90 gal 17.66 gal/hr 0.11 gal/nm 7534 msl 181 kts
Wed, Mar 4, 2015 SBUR SBFC 10:08 10:43 0.58 hrs 0.39 hrs 64.24 nm 7.70 gal 13.28 gal/hr 0.12 gal/nm 5511 msl 163 kts
Thu, May 8, 2014 SBDN SBSR 11:41 12:38 0.95 hrs 0.83 hrs 139.54 nm 16.10 gal 17.01 gal/hr 0.12 gal/nm 5502 msl 167 kts
Wed, Sep 4, 2013 SBME SBCP 17:27 17:59 0.53 hrs 0.40 hrs 58.55 nm 7.00 gal 13.21 gal/hr 0.12 gal/nm 930 msl 146 kts
Wed, Feb 20, 2013 SBBH SBRP 08:49 10:17 1.45 hrs 1.27 hrs 233.74 nm 23.90 gal 16.52 gal/hr 0.10 gal/nm 6514 msl 184 kts
Sun, Dec 9, 2012 SBBH SBBH 20:36 20:43 0.13 hrs 0.00 hrs 0.00 nm 0.00 gal 0.00 gal/hr 0.00 gal/nm 0 msl 0 kts
Thu, Aug 16, 2012 SBSJ SBSA 10:12 11:16 1.05 hrs 0.92 hrs 150.15 nm 17.60 gal 16.82 gal/hr 0.12 gal/nm 6507 msl 163 kts
Sun, Apr 15, 2012 SBMT SBMT 20:12 20:24 0.2 hrs 0.00 hrs 0.00 nm 35.70 gal 181.53 gal/hr 0.00 gal/nm 0 msl 0 kts
Wed, May 11, 2011     17:46 17:47 0.01 hrs 0.00 hrs 0.00 nm 0.40 gal 30.00 gal/hr 0.00 gal/nm 0 msl 0 kts
Wed, Dec 2, 2009 SBAU SBSR 20:17 20:44 0.45 hrs 0.39 hrs 62.14 nm 8.70 gal 19.48 gal/hr 0.14 gal/nm 5644 msl 158 kts
Fri, May 8, 2009 SBRP SBFC 15:03 15:23 0.33 hrs 0.27 hrs 39.98 nm 5.70 gal 17.27 gal/hr 0.14 gal/nm 5457 msl 145 kts
Wed, May 6, 2009 SDCO SDCO 15:18 17:14 1.94 hrs 1.76 hrs 313.26 nm 31.50 gal 16.21 gal/hr 0.10 gal/nm 7615 msl 177 kts
Mon, Feb 16, 2009 SBBH SBVT 15:05 16:39 1.56 hrs 1.46 hrs 226.60 nm 25.40 gal 16.25 gal/hr 0.11 gal/nm 8508 msl 155 kts
Sun, Jan 11, 2009 SBBH SDAG 12:21 13:53 1.53 hrs 1.18 hrs 208.27 nm 21.60 gal 14.12 gal/hr 0.10 gal/nm 8511 msl 176 kts
Tue, Sep 9, 2008 SDCO SDCO 12:24 13:01 0.61 hrs 0.00 hrs 0.00 nm 0.00 gal 0.00 gal/hr 0.00 gal/nm 0 msl 0 kts
Sat, Jan 1, 2000 SBVT SBVT 19:19 19:23 0.06 hrs 0.00 hrs 0.00 nm 0.00 gal 0.00 gal/hr 0.00 gal/nm 0 msl 0 kts
Sat, Jan 1, 2000     19:18 19:19 0.01 hrs 0.00 hrs 0.00 nm 0.00 gal 0.00 gal/hr 0.00 gal/nm 0 msl 0 kts
Sat, Jan 1, 2000 SNGV SBVG 13:37 15:30 1.86 hrs 1.68 hrs 263.00 nm 28.90 gal 15.51 gal/hr 0.11 gal/nm 12003 msl 155 kts
Sat, Jan 1, 2000     13:25 13:25 0.01 hrs 0.00 hrs 0.00 nm 0.00 gal 0.00 gal/hr 0.00 gal/nm 0 msl 0 kts
Sat, Jan 1, 2000     11:02 11:02 0.01 hrs 0.00 hrs 0.00 nm 0.00 gal 0.00 gal/hr 0.00 gal/nm 0 msl 0 kts
Sat, Jan 1, 2000     03:04 03:44 0.66 hrs 0.00 hrs 0.00 nm 0.00 gal 0.00 gal/hr 0.00 gal/nm 0 msl 0 kts
Sat, Jan 1, 2000     03:03 18:31 0.01 hrs 0.00 hrs 0.00 nm 0.00 gal 0.00 gal/hr 0.00 gal/nm 0 msl 0 kts
Sat, Jan 1, 2000 SBBH SBBH 03:02 22:39 1.36 hrs 0.02 hrs 0.81 nm 0.00 gal 0.00 gal/hr 0.00 gal/nm 2534 msl 48 kts
Sat, Jan 1, 2000     03:02 03:06 0.06 hrs 0.00 hrs 0.00 nm 0.00 gal 0.00 gal/hr 0.00 gal/nm 0 msl 0 kts
Sat, Jan 1, 2000     03:02 03:09 0.11 hrs 0.00 hrs 0.00 nm 0.00 gal 0.00 gal/hr 0.00 gal/nm 0 msl 0 kts
Sat, Jan 1, 2000     03:01 03:02 0.01 hrs 0.00 hrs 0.00 nm 0.00 gal 0.00 gal/hr 0.00 gal/nm 0 msl 0 kts
Sat, Jan 1, 2000 SDCO SBBH 03:00 22:18 1.96 hrs 1.82 hrs 312.57 nm 31.50 gal 16.04 gal/hr 0.10 gal/nm 9073 msl 171 kts
Sat, Jan 1, 2000 SDCO SDCO 03:00 19:46 0.1 hrs 0.00 hrs 0.00 nm 0.80 gal 8.28 gal/hr 0.00 gal/nm 0 msl 0 kts
Sat, Jan 1, 2000 SBSR SDOL 03:00 13:23 0.5 hrs 0.26 hrs 37.52 nm 5.00 gal 10.07 gal/hr 0.13 gal/nm 3512 msl 144 kts
Sat, Jan 1, 2000 SBJF SBBH 03:00 20:11 0.88 hrs 0.76 hrs 123.79 nm 14.00 gal 15.91 gal/hr 0.11 gal/nm 6519 msl 163 kts
Sat, Jan 1, 2000 SBME SBCP 03:00 15:35 0.5 hrs 0.33 hrs 50.19 nm 6.60 gal 13.29 gal/hr 0.13 gal/nm 1579 msl 150 kts
Sat, Jan 1, 2000 SBVT SBCP 02:00 13:23 0.83 hrs 0.67 hrs 112.30 nm 12.70 gal 15.30 gal/hr 0.11 gal/nm 4517 msl 167 kts
Sat, Jan 1, 2000 SBAU SBSR 02:00 20:21 0.61 hrs 0.47 hrs 68.55 nm 8.40 gal 13.70 gal/hr 0.12 gal/nm 3520 msl 146 kts
Sat, Jan 1, 2000 SBFC SBRP 02:00 02:26 0.43 hrs 0.28 hrs 44.08 nm 5.60 gal 13.02 gal/hr 0.13 gal/nm 4538 msl 155 kts
Sat, Jan 1, 2000 SBBH SBBH 02:00 04:45 2.71 hrs 0.00 hrs 0.00 nm 0.00 gal 0.00 gal/hr 0.00 gal/nm 0 msl 0 kts
Sat, Jan 1, 2000 SBSR SBBU 02:00 16:22 0.75 hrs 0.61 hrs 101.68 nm 12.10 gal 16.21 gal/hr 0.12 gal/nm 6518 msl 166 kts
Sat, Jan 1, 2000     00:05 01:04 0.96 hrs 0.00 hrs 0.00 nm 0.00 gal 0.00 gal/hr 0.00 gal/nm 0 msl 0 kts
Sat, Jan 1, 2000     00:04 00:04 0.01 hrs 0.00 hrs 0.00 nm 0.00 gal 0.00 gal/hr 0.00 gal/nm 0 msl 0 kts
Sat, Jan 1, 2000     00:03 00:07 0.06 hrs 0.00 hrs 0.00 nm 0.00 gal 0.00 gal/hr 0.00 gal/nm 0 msl 0 kts
Sat, Jan 1, 2000 SBBH SBRP 00:03 10:43 1.65 hrs 1.46 hrs 258.12 nm 26.10 gal 15.85 gal/hr 0.10 gal/nm 6646 msl 176 kts
Sat, Jan 1, 2000 SNGV SNGV 00:03 19:54 0.03 hrs 0.00 hrs 0.00 nm 0.00 gal 0.00 gal/hr 0.00 gal/nm 0 msl 0 kts
Sat, Jan 1, 2000 SBBH SBBH 00:03 20:31 0.31 hrs 0.00 hrs 0.00 nm 0.00 gal 0.00 gal/hr 0.00 gal/nm 0 msl 0 kts
Sat, Jan 1, 2000 SBBH SBBH 00:03 19:36 0.67 hrs 0.21 hrs 23.41 nm 8.40 gal 12.48 gal/hr 0.36 gal/nm 4063 msl 111 kts
Sat, Jan 1, 2000     00:03 00:07 0.08 hrs 0.00 hrs 0.00 nm 0.00 gal 0.00 gal/hr 0.00 gal/nm 0 msl 0 kts
Sat, Jan 1, 2000     00:03 13:16 0.01 hrs 0.00 hrs 0.00 nm 0.00 gal 0.00 gal/hr 0.00 gal/nm 0 msl 0 kts
Sat, Jan 1, 2000 SBBH SBFC 00:03 10:09 1.4 hrs 1.19 hrs 211.25 nm 21.40 gal 15.32 gal/hr 0.10 gal/nm 6516 msl 176 kts
Sat, Jan 1, 2000     00:02 00:03 0.01 hrs 0.00 hrs 0.00 nm 0.00 gal 0.00 gal/hr 0.00 gal/nm 0 msl 0 kts
Sat, Jan 1, 2000 SBBH SBBH 00:02 14:22 0.35 hrs 0.00 hrs 0.00 nm 0.00 gal 0.00 gal/hr 0.00 gal/nm 0 msl 0 kts
Sat, Jan 1, 2000     00:02 00:03 0.01 hrs 0.00 hrs 0.00 nm 0.00 gal 0.00 gal/hr 0.00 gal/nm 0 msl 0 kts
Sat, Jan 1, 2000     00:02 00:03 0.01 hrs 0.00 hrs 0.00 nm 0.00 gal 0.00 gal/hr 0.00 gal/nm 0 msl 0 kts
Sat, Jan 1, 2000     00:02 00:03 0.01 hrs 0.00 hrs 0.00 nm 0.00 gal 0.00 gal/hr 0.00 gal/nm 0 msl 0 kts
Sat, Jan 1, 2000     00:02 00:03 0.01 hrs 0.00 hrs 0.00 nm 0.00 gal 0.00 gal/hr 0.00 gal/nm 0 msl 0 kts
Sat, Jan 1, 2000     00:02 00:03 0.01 hrs 0.00 hrs 0.00 nm 0.00 gal 0.00 gal/hr 0.00 gal/nm 0 msl 0 kts
Sat, Jan 1, 2000     00:02 00:03 0.01 hrs 0.00 hrs 0.00 nm 0.00 gal 0.00 gal/hr 0.00 gal/nm 0 msl 0 kts
Sat, Jan 1, 2000     00:02 14:28 0.01 hrs 0.00 hrs 0.00 nm 0.00 gal 0.00 gal/hr 0.00 gal/nm 0 msl 0 kts
Sat, Jan 1, 2000 SNGV SNGV 00:02 10:25 0.03 hrs 0.00 hrs 0.00 nm 0.20 gal 6.67 gal/hr 0.00 gal/nm 0 msl 0 kts
Sat, Jan 1, 2000 SBBH SCCZ 00:02 12:17 0.34 hrs 0.02 hrs 1.16 nm 405.90 gal 1205.64 gal/hr 349.91 gal/nm -15778 msl 46 kts
Sat, Jan 1, 2000     00:02 00:12 0.16 hrs 0.00 hrs 0.00 nm 0.00 gal 0.00 gal/hr 0.00 gal/nm 0 msl 0 kts
Sat, Jan 1, 2000     00:02 00:03 0.01 hrs 0.00 hrs 0.00 nm 0.00 gal 0.00 gal/hr 0.00 gal/nm 0 msl 0 kts
Sat, Jan 1, 2000     00:02 00:03 0.01 hrs 0.00 hrs 0.00 nm 0.00 gal 0.00 gal/hr 0.00 gal/nm 0 msl 0 kts
Sat, Jan 1, 2000 SBRP SDJD 00:02 16:32 0.34 hrs 0.13 hrs 20.97 nm 4.20 gal 12.48 gal/hr 0.20 gal/nm 4957 msl 160 kts
Sat, Jan 1, 2000     00:02 00:02 0.01 hrs 0.00 hrs 0.00 nm 0.00 gal 0.00 gal/hr 0.00 gal/nm 0 msl 0 kts
Sat, Jan 1, 2000 SDCO SDCO 00:02 19:21 0.06 hrs 0.00 hrs 0.00 nm 0.00 gal 0.00 gal/hr 0.00 gal/nm 0 msl 0 kts
Sat, Jan 1, 2000 SBRP SBBH 00:02 10:58 1.5 hrs 1.28 hrs 229.74 nm 25.60 gal 17.10 gal/hr 0.11 gal/nm 7525 msl 179 kts
Sat, Jan 1, 2000     00:01 00:02 0.01 hrs 0.00 hrs 0.00 nm 0.00 gal 0.00 gal/hr 0.00 gal/nm 0 msl 0 kts
Sat, Jan 1, 2000 SBRP SBAQ 00:01 10:13 1.06 hrs 0.90 hrs 127.66 nm 15.00 gal 14.11 gal/hr 0.12 gal/nm 4426 msl 141 kts
Sat, Jan 1, 2000     00:01 00:03 0.03 hrs 0.00 hrs 0.00 nm 0.00 gal 0.00 gal/hr 0.00 gal/nm 0 msl 0 kts
Sat, Jan 1, 2000     00:01 13:25 0.01 hrs 0.00 hrs 0.00 nm 0.00 gal 0.00 gal/hr 0.00 gal/nm 0 msl 0 kts
Sat, Jan 1, 2000     00:01 00:02 0.01 hrs 0.00 hrs 0.00 nm 0.00 gal 0.00 gal/hr 0.00 gal/nm 0 msl 0 kts
Sat, Jan 1, 2000     00:01 00:02 0.01 hrs 0.00 hrs 0.00 nm 0.00 gal 0.00 gal/hr 0.00 gal/nm 0 msl 0 kts
Sat, Jan 1, 2000     00:01 00:02 0.01 hrs 0.00 hrs 0.00 nm 0.00 gal 0.00 gal/hr 0.00 gal/nm 0 msl 0 kts
Sat, Jan 1, 2000     00:01 00:07 0.1 hrs 0.00 hrs 0.00 nm 0.00 gal 0.00 gal/hr 0.00 gal/nm 0 msl 0 kts
Sat, Jan 1, 2000     00:01 00:02 0.01 hrs 0.00 hrs 0.00 nm 0.00 gal 0.00 gal/hr 0.00 gal/nm 0 msl 0 kts
Sat, Jan 1, 2000     00:01 00:01 0.01 hrs 0.00 hrs 0.00 nm 0.10 gal 7.50 gal/hr 0.00 gal/nm 0 msl 0 kts
Sat, Jan 1, 2000 SBBH SCCZ 00:01 10:11 2.11 hrs 1.72 hrs 296.74 nm 30.80 gal 14.62 gal/hr 0.10 gal/nm 6754 msl 172 kts
Wed, Dec 31, 1969     19:00 19:00 0 hrs 0.00 hrs 0.00 nm 0.00 gal 0.00 gal/hr 0.00 gal/nm 0 msl 0 kts
Wed, Dec 31, 1969     19:00 19:00 0 hrs 0.00 hrs 0.00 nm 0.00 gal 0.00 gal/hr 0.00 gal/nm 0 msl 0 kts
Wed, Dec 31, 1969     19:00 19:00 0 hrs 0.00 hrs 0.00 nm 0.00 gal 0.00 gal/hr 0.00 gal/nm 0 msl 0 kts
Wed, Dec 31, 1969     19:00 19:00 0 hrs 0.00 hrs 0.00 nm 0.00 gal 0.00 gal/hr 0.00 gal/nm 0 msl 0 kts
Wed, Dec 31, 1969     19:00 19:00 0 hrs 0.00 hrs 0.00 nm 0.00 gal 0.00 gal/hr 0.00 gal/nm 0 msl 0 kts
Wed, Dec 31, 1969     19:00 19:00 0 hrs 0.00 hrs 0.00 nm 0.00 gal 0.00 gal/hr 0.00 gal/nm 0 msl 0 kts
Wed, Dec 31, 1969     19:00 19:00 0 hrs 0.00 hrs 0.00 nm 0.00 gal 0.00 gal/hr 0.00 gal/nm 0 msl 0 kts
Wed, Dec 31, 1969     19:00 19:00 0 hrs 0.00 hrs 0.00 nm 0.00 gal 0.00 gal/hr 0.00 gal/nm 0 msl 0 kts
Wed, Dec 31, 1969     19:00 19:00 0 hrs 0.00 hrs 0.00 nm 0.00 gal 0.00 gal/hr 0.00 gal/nm 0 msl 0 kts
Wed, Dec 31, 1969     19:00 19:00 0 hrs 0.00 hrs 0.00 nm 0.00 gal 0.00 gal/hr 0.00 gal/nm 0 msl 0 kts
Wed, Dec 31, 1969     19:00 19:00 0 hrs 0.00 hrs 0.00 nm 0.00 gal 0.00 gal/hr 0.00 gal/nm 0 msl 0 kts
Wed, Dec 31, 1969     19:00 19:00 0 hrs 0.00 hrs 0.00 nm 0.00 gal 0.00 gal/hr 0.00 gal/nm 0 msl 0 kts
Wed, Dec 31, 1969     19:00 19:00 0 hrs 0.00 hrs 0.00 nm 0.00 gal 0.00 gal/hr 0.00 gal/nm 0 msl 0 kts
Wed, Dec 31, 1969     19:00 19:00 0 hrs 0.00 hrs 0.00 nm 0.00 gal 0.00 gal/hr 0.00 gal/nm 0 msl 0 kts
Wed, Dec 31, 1969     19:00 19:00 0 hrs 0.00 hrs 0.00 nm 0.00 gal 0.00 gal/hr 0.00 gal/nm 0 msl 0 kts
Wed, Dec 31, 1969     19:00 19:00 0 hrs 0.00 hrs 0.00 nm 0.00 gal 0.00 gal/hr 0.00 gal/nm 0 msl 0 kts
Wed, Dec 31, 1969     19:00 19:00 0 hrs 0.00 hrs 0.00 nm 0.00 gal 0.00 gal/hr 0.00 gal/nm 0 msl 0 kts
Wed, Dec 31, 1969     19:00 19:00 0 hrs 0.00 hrs 0.00 nm 0.00 gal 0.00 gal/hr 0.00 gal/nm 0 msl 0 kts
Wed, Dec 31, 1969     19:00 19:00 0 hrs 0.00 hrs 0.00 nm 0.00 gal 0.00 gal/hr 0.00 gal/nm 0 msl 0 kts
Wed, Dec 31, 1969     19:00 19:00 0 hrs 0.00 hrs 0.00 nm 0.00 gal 0.00 gal/hr 0.00 gal/nm 0 msl 0 kts
Wed, Dec 31, 1969     19:00 19:00 0 hrs 0.00 hrs 0.00 nm 0.00 gal 0.00 gal/hr 0.00 gal/nm 0 msl 0 kts
Wed, Dec 31, 1969     19:00 19:00 0 hrs 0.00 hrs 0.00 nm 0.00 gal 0.00 gal/hr 0.00 gal/nm 0 msl 0 kts
Wed, Dec 31, 1969     19:00 19:00 0 hrs 0.00 hrs 0.00 nm 0.00 gal 0.00 gal/hr 0.00 gal/nm 0 msl 0 kts
Wed, Dec 31, 1969     19:00 19:00 0 hrs 0.00 hrs 0.00 nm 0.00 gal 0.00 gal/hr 0.00 gal/nm 0 msl 0 kts
Wed, Dec 31, 1969     19:00 19:00 0 hrs 0.00 hrs 0.00 nm 0.00 gal 0.00 gal/hr 0.00 gal/nm 0 msl 0 kts
Wed, Dec 31, 1969     19:00 19:00 0 hrs 0.00 hrs 0.00 nm 0.00 gal 0.00 gal/hr 0.00 gal/nm 0 msl 0 kts
Wed, Dec 31, 1969     19:00 19:00 0 hrs 0.00 hrs 0.00 nm 0.00 gal 0.00 gal/hr 0.00 gal/nm 0 msl 0 kts
Wed, Dec 31, 1969     19:00 19:00 0 hrs 0.00 hrs 0.00 nm 0.00 gal 0.00 gal/hr 0.00 gal/nm 0 msl 0 kts
Wed, Dec 31, 1969     19:00 19:00 0 hrs 0.00 hrs 0.00 nm 0.00 gal 0.00 gal/hr 0.00 gal/nm 0 msl 0 kts
Wed, Dec 31, 1969     19:00 19:00 0 hrs 0.00 hrs 0.00 nm 0.00 gal 0.00 gal/hr 0.00 gal/nm 0 msl 0 kts
Wed, Dec 31, 1969     19:00 19:00 0 hrs 0.00 hrs 0.00 nm 0.00 gal 0.00 gal/hr 0.00 gal/nm 0 msl 0 kts
Wed, Dec 31, 1969     19:00 19:00 0 hrs 0.00 hrs 0.00 nm 0.00 gal 0.00 gal/hr 0.00 gal/nm 0 msl 0 kts
Wed, Dec 31, 1969     19:00 19:00 0 hrs 0.00 hrs 0.00 nm 0.00 gal 0.00 gal/hr 0.00 gal/nm 0 msl 0 kts
Wed, Dec 31, 1969     19:00 19:00 0 hrs 0.00 hrs 0.00 nm 0.00 gal 0.00 gal/hr 0.00 gal/nm 0 msl 0 kts
Wed, Dec 31, 1969     19:00 19:00 0 hrs 0.00 hrs 0.00 nm 0.00 gal 0.00 gal/hr 0.00 gal/nm 0 msl 0 kts
Wed, Dec 31, 1969     19:00 19:00 0 hrs 0.00 hrs 0.00 nm 0.00 gal 0.00 gal/hr 0.00 gal/nm 0 msl 0 kts
Wed, Dec 31, 1969     19:00 19:00 0 hrs 0.00 hrs 0.00 nm 0.00 gal 0.00 gal/hr 0.00 gal/nm 0 msl 0 kts
Wed, Dec 31, 1969     19:00 19:00 0 hrs 0.00 hrs 0.00 nm 0.00 gal 0.00 gal/hr 0.00 gal/nm 0 msl 0 kts
Wed, Dec 31, 1969     19:00 19:00 0 hrs 0.00 hrs 0.00 nm 0.00 gal 0.00 gal/hr 0.00 gal/nm 0 msl 0 kts
Wed, Dec 31, 1969     19:00 19:00 0 hrs 0.00 hrs 0.00 nm 0.00 gal 0.00 gal/hr 0.00 gal/nm 0 msl 0 kts
Wed, Dec 31, 1969     19:00 19:00 0 hrs 0.00 hrs 0.00 nm 0.00 gal 0.00 gal/hr 0.00 gal/nm 0 msl 0 kts
Wed, Dec 31, 1969     19:00 19:00 0 hrs 0.00 hrs 0.00 nm 0.00 gal 0.00 gal/hr 0.00 gal/nm 0 msl 0 kts
Wed, Dec 31, 1969     19:00 19:00 0 hrs 0.00 hrs 0.00 nm 0.00 gal 0.00 gal/hr 0.00 gal/nm 0 msl 0 kts
Wed, Dec 31, 1969     19:00 19:00 0 hrs 0.00 hrs 0.00 nm 0.00 gal 0.00 gal/hr 0.00 gal/nm 0 msl 0 kts
Wed, Dec 31, 1969     19:00 19:00 0 hrs 0.00 hrs 0.00 nm 0.00 gal 0.00 gal/hr 0.00 gal/nm 0 msl 0 kts
Wed, Dec 31, 1969     19:00 19:00 0 hrs 0.00 hrs 0.00 nm 0.00 gal 0.00 gal/hr 0.00 gal/nm 0 msl 0 kts
Wed, Dec 31, 1969     19:00 19:00 0 hrs 0.00 hrs 0.00 nm 0.00 gal 0.00 gal/hr 0.00 gal/nm 0 msl 0 kts
Wed, Dec 31, 1969     19:00 19:00 0 hrs 0.00 hrs 0.00 nm 0.00 gal 0.00 gal/hr 0.00 gal/nm 0 msl 0 kts
Wed, Dec 31, 1969     19:00 19:00 0 hrs 0.00 hrs 0.00 nm 0.00 gal 0.00 gal/hr 0.00 gal/nm 0 msl 0 kts
Wed, Dec 31, 1969     19:00 19:00 0 hrs 0.00 hrs 0.00 nm 0.00 gal 0.00 gal/hr 0.00 gal/nm 0 msl 0 kts
Wed, Dec 31, 1969     19:00 19:00 0 hrs 0.00 hrs 0.00 nm 0.00 gal 0.00 gal/hr 0.00 gal/nm 0 msl 0 kts
Wed, Dec 31, 1969     19:00 19:00 0 hrs 0.00 hrs 0.00 nm 0.00 gal 0.00 gal/hr 0.00 gal/nm 0 msl 0 kts
Wed, Dec 31, 1969     19:00 19:00 0 hrs 0.00 hrs 0.00 nm 0.00 gal 0.00 gal/hr 0.00 gal/nm 0 msl 0 kts
Wed, Dec 31, 1969     19:00 19:00 0 hrs 0.00 hrs 0.00 nm 0.00 gal 0.00 gal/hr 0.00 gal/nm 0 msl 0 kts
Wed, Dec 31, 1969     19:00 19:00 0 hrs 0.00 hrs 0.00 nm 0.00 gal 0.00 gal/hr 0.00 gal/nm 0 msl 0 kts
Wed, Dec 31, 1969     19:00 19:00 0 hrs 0.00 hrs 0.00 nm 0.00 gal 0.00 gal/hr 0.00 gal/nm 0 msl 0 kts
Wed, Dec 31, 1969     19:00 19:00 0 hrs 0.00 hrs 0.00 nm 0.00 gal 0.00 gal/hr 0.00 gal/nm 0 msl 0 kts
Wed, Dec 31, 1969     19:00 19:00 0 hrs 0.00 hrs 0.00 nm 0.00 gal 0.00 gal/hr 0.00 gal/nm 0 msl 0 kts
Wed, Dec 31, 1969     19:00 19:00 0 hrs 0.00 hrs 0.00 nm 0.00 gal 0.00 gal/hr 0.00 gal/nm 0 msl 0 kts
Wed, Dec 31, 1969     19:00 19:00 0 hrs 0.00 hrs 0.00 nm 0.00 gal 0.00 gal/hr 0.00 gal/nm 0 msl 0 kts
Wed, Dec 31, 1969     19:00 19:00 0 hrs 0.00 hrs 0.00 nm 0.00 gal 0.00 gal/hr 0.00 gal/nm 0 msl 0 kts
Wed, Dec 31, 1969     19:00 19:00 0 hrs 0.00 hrs 0.00 nm 0.00 gal 0.00 gal/hr 0.00 gal/nm 0 msl 0 kts
Wed, Dec 31, 1969     19:00 19:00 0 hrs 0.00 hrs 0.00 nm 0.00 gal 0.00 gal/hr 0.00 gal/nm 0 msl 0 kts
Wed, Dec 31, 1969     19:00 19:00 0 hrs 0.00 hrs 0.00 nm 0.00 gal 0.00 gal/hr 0.00 gal/nm 0 msl 0 kts
Wed, Dec 31, 1969     19:00 19:00 0 hrs 0.00 hrs 0.00 nm 0.00 gal 0.00 gal/hr 0.00 gal/nm 0 msl 0 kts
Wed, Dec 31, 1969     19:00 19:00 0 hrs 0.00 hrs 0.00 nm 0.00 gal 0.00 gal/hr 0.00 gal/nm 0 msl 0 kts
Wed, Dec 31, 1969     19:00 19:00 0 hrs 0.00 hrs 0.00 nm 0.00 gal 0.00 gal/hr 0.00 gal/nm 0 msl 0 kts
Wed, Dec 31, 1969     19:00 19:00 0 hrs 0.00 hrs 0.00 nm 0.00 gal 0.00 gal/hr 0.00 gal/nm 0 msl 0 kts
Wed, Dec 31, 1969     19:00 19:00 0 hrs 0.00 hrs 0.00 nm 0.00 gal 0.00 gal/hr 0.00 gal/nm 0 msl 0 kts
Wed, Dec 31, 1969     19:00 19:00 0 hrs 0.00 hrs 0.00 nm 0.00 gal 0.00 gal/hr 0.00 gal/nm 0 msl 0 kts
Wed, Dec 31, 1969     19:00 19:00 0 hrs 0.00 hrs 0.00 nm 0.00 gal 0.00 gal/hr 0.00 gal/nm 0 msl 0 kts
Wed, Dec 31, 1969     19:00 19:00 0 hrs 0.00 hrs 0.00 nm 0.00 gal 0.00 gal/hr 0.00 gal/nm 0 msl 0 kts
Wed, Dec 31, 1969     19:00 19:00 0 hrs 0.00 hrs 0.00 nm 0.00 gal 0.00 gal/hr 0.00 gal/nm 0 msl 0 kts
Wed, Dec 31, 1969     19:00 19:00 0 hrs 0.00 hrs 0.00 nm 0.00 gal 0.00 gal/hr 0.00 gal/nm 0 msl 0 kts
Wed, Dec 31, 1969     19:00 19:00 0 hrs 0.00 hrs 0.00 nm 0.00 gal 0.00 gal/hr 0.00 gal/nm 0 msl 0 kts
Wed, Dec 31, 1969     19:00 19:00 0 hrs 0.00 hrs 0.00 nm 0.00 gal 0.00 gal/hr 0.00 gal/nm 0 msl 0 kts
Wed, Dec 31, 1969     19:00 19:00 0 hrs 0.00 hrs 0.00 nm 0.00 gal 0.00 gal/hr 0.00 gal/nm 0 msl 0 kts
Wed, Dec 31, 1969     19:00 19:00 0 hrs 0.00 hrs 0.00 nm 0.00 gal 0.00 gal/hr 0.00 gal/nm 0 msl 0 kts
Wed, Dec 31, 1969     19:00 19:00 0 hrs 0.00 hrs 0.00 nm 0.00 gal 0.00 gal/hr 0.00 gal/nm 0 msl 0 kts
Wed, Dec 31, 1969     19:00 19:00 0 hrs 0.00 hrs 0.00 nm 0.00 gal 0.00 gal/hr 0.00 gal/nm 0 msl 0 kts
Wed, Dec 31, 1969     19:00 19:00 0 hrs 0.00 hrs 0.00 nm 0.00 gal 0.00 gal/hr 0.00 gal/nm 0 msl 0 kts
Wed, Dec 31, 1969     19:00 19:00 0 hrs 0.00 hrs 0.00 nm 0.00 gal 0.00 gal/hr 0.00 gal/nm 0 msl 0 kts
Wed, Dec 31, 1969     19:00 19:00 0 hrs 0.00 hrs 0.00 nm 0.00 gal 0.00 gal/hr 0.00 gal/nm 0 msl 0 kts
Wed, Dec 31, 1969     19:00 19:00 0 hrs 0.00 hrs 0.00 nm 0.00 gal 0.00 gal/hr 0.00 gal/nm 0 msl 0 kts
Wed, Dec 31, 1969     19:00 19:00 0 hrs 0.00 hrs 0.00 nm 0.00 gal 0.00 gal/hr 0.00 gal/nm 0 msl 0 kts
Wed, Dec 31, 1969     19:00 19:00 0 hrs 0.00 hrs 0.00 nm 0.00 gal 0.00 gal/hr 0.00 gal/nm 0 msl 0 kts
Wed, Dec 31, 1969     19:00 19:00 0 hrs 0.00 hrs 0.00 nm 0.00 gal 0.00 gal/hr 0.00 gal/nm 0 msl 0 kts
Wed, Dec 31, 1969     19:00 19:00 0 hrs 0.00 hrs 0.00 nm 0.00 gal 0.00 gal/hr 0.00 gal/nm 0 msl 0 kts
Wed, Dec 31, 1969     19:00 19:00 0 hrs 0.00 hrs 0.00 nm 0.00 gal 0.00 gal/hr 0.00 gal/nm 0 msl 0 kts
Wed, Dec 31, 1969     19:00 19:00 0 hrs 0.00 hrs 0.00 nm 0.00 gal 0.00 gal/hr 0.00 gal/nm 0 msl 0 kts
Wed, Dec 31, 1969     19:00 19:00 0 hrs 0.00 hrs 0.00 nm 0.00 gal 0.00 gal/hr 0.00 gal/nm 0 msl 0 kts
Wed, Dec 31, 1969     19:00 19:00 0 hrs 0.00 hrs 0.00 nm 0.00 gal 0.00 gal/hr 0.00 gal/nm 0 msl 0 kts
Wed, Dec 31, 1969     19:00 19:00 0 hrs 0.00 hrs 0.00 nm 0.00 gal 0.00 gal/hr 0.00 gal/nm 0 msl 0 kts
Wed, Dec 31, 1969     19:00 19:00 0 hrs 0.00 hrs 0.00 nm 0.00 gal 0.00 gal/hr 0.00 gal/nm 0 msl 0 kts
Wed, Dec 31, 1969     19:00 19:00 0 hrs 0.00 hrs 0.00 nm 0.00 gal 0.00 gal/hr 0.00 gal/nm 0 msl 0 kts
Wed, Dec 31, 1969     19:00 19:00 0 hrs 0.00 hrs 0.00 nm 0.00 gal 0.00 gal/hr 0.00 gal/nm 0 msl 0 kts
Wed, Dec 31, 1969     19:00 19:00 0 hrs 0.00 hrs 0.00 nm 0.00 gal 0.00 gal/hr 0.00 gal/nm 0 msl 0 kts
Wed, Dec 31, 1969     19:00 19:00 0 hrs 0.00 hrs 0.00 nm 0.00 gal 0.00 gal/hr 0.00 gal/nm 0 msl 0 kts
Wed, Dec 31, 1969     19:00 19:00 0 hrs 0.00 hrs 0.00 nm 0.00 gal 0.00 gal/hr 0.00 gal/nm 0 msl 0 kts
Wed, Dec 31, 1969     19:00 19:00 0 hrs 0.00 hrs 0.00 nm 0.00 gal 0.00 gal/hr 0.00 gal/nm 0 msl 0 kts
Wed, Dec 31, 1969     19:00 19:00 0 hrs 0.00 hrs 0.00 nm 0.00 gal 0.00 gal/hr 0.00 gal/nm 0 msl 0 kts
          44.56 hrs 29.64 hrs 4913.56 nm 1003.50 gal